sensor_id;sensor_type;location;lat;lon;timestamp;temperature;humidity
67275;DHT22;55463;52.324;5.122;2022-09-09T00:03:47;15.77;90.51
67275;DHT22;55463;52.324;5.122;2022-09-09T00:06:32;15.70;90.64
67275;DHT22;55463;52.324;5.122;2022-09-09T00:09:06;15.66;91.02
67275;DHT22;55463;52.324;5.122;2022-09-09T00:12:09;15.62;91.05
67275;DHT22;55463;52.324;5.122;2022-09-09T00:14:52;15.67;90.96
67275;DHT22;55463;52.324;5.122;2022-09-09T00:17:39;15.65;90.85
67275;DHT22;55463;52.324;5.122;2022-09-09T00:25:44;15.58;91.29
67275;DHT22;55463;52.324;5.122;2022-09-09T00:28:20;15.53;91.79
67275;DHT22;55463;52.324;5.122;2022-09-09T00:30:46;15.49;91.74
67275;DHT22;55463;52.324;5.122;2022-09-09T00:33:17;15.49;91.86
67275;DHT22;55463;52.324;5.122;2022-09-09T00:35:49;15.48;92.05
67275;DHT22;55463;52.324;5.122;2022-09-09T00:38:31;15.48;92.31
67275;DHT22;55463;52.324;5.122;2022-09-09T00:43:36;15.49;92.77
67275;DHT22;55463;52.324;5.122;2022-09-09T00:48:57;15.49;92.54
67275;DHT22;55463;52.324;5.122;2022-09-09T00:54:36;15.48;92.95
67275;DHT22;55463;52.324;5.122;2022-09-09T00:59:50;15.42;93.24
67275;DHT22;55463;52.324;5.122;2022-09-09T01:02:28;15.43;93.09
67275;DHT22;55463;52.324;5.122;2022-09-09T01:05:04;15.39;93.26
67275;DHT22;55463;52.324;5.122;2022-09-09T01:07:30;15.41;93.37
67275;DHT22;55463;52.324;5.122;2022-09-09T01:09:59;15.38;93.20
67275;DHT22;55463;52.324;5.122;2022-09-09T01:12:43;15.38;92.96
67275;DHT22;55463;52.324;5.122;2022-09-09T01:15:16;15.38;93.13
67275;DHT22;55463;52.324;5.122;2022-09-09T01:18:07;15.36;93.23
67275;DHT22;55463;52.324;5.122;2022-09-09T01:20:41;15.32;93.33
67275;DHT22;55463;52.324;5.122;2022-09-09T01:26:30;15.22;92.95
67275;DHT22;55463;52.324;5.122;2022-09-09T01:28:55;15.22;93.27
67275;DHT22;55463;52.324;5.122;2022-09-09T01:31:31;15.20;93.11
67275;DHT22;55463;52.324;5.122;2022-09-09T01:33:57;15.11;93.26
67275;DHT22;55463;52.324;5.122;2022-09-09T01:36:34;15.10;93.15
67275;DHT22;55463;52.324;5.122;2022-09-09T01:39:03;15.05;93.38
67275;DHT22;55463;52.324;5.122;2022-09-09T01:41:28;15.08;93.33
67275;DHT22;55463;52.324;5.122;2022-09-09T01:43:55;15.03;93.31
67275;DHT22;55463;52.324;5.122;2022-09-09T01:46:22;15.01;93.46
67275;DHT22;55463;52.324;5.122;2022-09-09T01:48:48;14.93;93.42
67275;DHT22;55463;52.324;5.122;2022-09-09T01:51:14;14.90;93.63
67275;DHT22;55463;52.324;5.122;2022-09-09T01:53:41;14.86;93.74
67275;DHT22;55463;52.324;5.122;2022-09-09T01:56:33;14.83;93.79
67275;DHT22;55463;52.324;5.122;2022-09-09T02:04:47;14.72;93.98
67275;DHT22;55463;52.324;5.122;2022-09-09T02:07:42;14.75;94.13
67275;DHT22;55463;52.324;5.122;2022-09-09T02:10:23;14.70;93.98
67275;DHT22;55463;52.324;5.122;2022-09-09T02:13:00;14.67;94.13
67275;DHT22;55463;52.324;5.122;2022-09-09T02:18:06;14.70;94.57
67275;DHT22;55463;52.324;5.122;2022-09-09T02:20:34;14.70;94.54
67275;DHT22;55463;52.324;5.122;2022-09-09T02:23:02;14.75;94.50
67275;DHT22;55463;52.324;5.122;2022-09-09T02:25:29;14.72;94.39
67275;DHT22;55463;52.324;5.122;2022-09-09T02:27:55;14.72;94.48
67275;DHT22;55463;52.324;5.122;2022-09-09T02:30:23;14.67;94.50
67275;DHT22;55463;52.324;5.122;2022-09-09T02:32:50;14.72;94.67
67275;DHT22;55463;52.324;5.122;2022-09-09T02:35:23;14.70;94.43
67275;DHT22;55463;52.324;5.122;2022-09-09T02:37:51;14.73;94.42
67275;DHT22;55463;52.324;5.122;2022-09-09T02:40:18;14.69;94.34
67275;DHT22;55463;52.324;5.122;2022-09-09T02:42:46;14.65;94.04
67275;DHT22;55463;52.324;5.122;2022-09-09T02:45:14;14.65;94.35
67275;DHT22;55463;52.324;5.122;2022-09-09T02:47:43;14.59;94.24
67275;DHT22;55463;52.324;5.122;2022-09-09T02:50:20;14.65;94.27
67275;DHT22;55463;52.324;5.122;2022-09-09T02:53:16;14.65;94.16
67275;DHT22;55463;52.324;5.122;2022-09-09T02:56:05;14.59;93.90
67275;DHT22;55463;52.324;5.122;2022-09-09T02:58:35;14.55;94.14
67275;DHT22;55463;52.324;5.122;2022-09-09T03:01:00;14.52;94.49
67275;DHT22;55463;52.324;5.122;2022-09-09T03:03:28;14.53;94.43
67275;DHT22;55463;52.324;5.122;2022-09-09T03:05:54;14.52;94.37
67275;DHT22;55463;52.324;5.122;2022-09-09T03:08:19;14.55;94.26
67275;DHT22;55463;52.324;5.122;2022-09-09T03:10:45;14.49;94.32
67275;DHT22;55463;52.324;5.122;2022-09-09T03:13:10;14.46;94.28
67275;DHT22;55463;52.324;5.122;2022-09-09T03:15:37;14.46;94.59
67275;DHT22;55463;52.324;5.122;2022-09-09T03:18:03;14.42;94.62
67275;DHT22;55463;52.324;5.122;2022-09-09T03:20:29;14.36;94.28
67275;DHT22;55463;52.324;5.122;2022-09-09T03:22:56;14.36;94.58
67275;DHT22;55463;52.324;5.122;2022-09-09T03:25:22;14.32;94.80
67275;DHT22;55463;52.324;5.122;2022-09-09T03:27:51;14.29;94.61
67275;DHT22;55463;52.324;5.122;2022-09-09T03:30:23;14.26;94.78
67275;DHT22;55463;52.324;5.122;2022-09-09T03:32:48;14.26;94.69
67275;DHT22;55463;52.324;5.122;2022-09-09T03:35:14;14.24;94.80
67275;DHT22;55463;52.324;5.122;2022-09-09T03:37:40;14.18;94.77
67275;DHT22;55463;52.324;5.122;2022-09-09T03:40:07;14.20;94.59
67275;DHT22;55463;52.324;5.122;2022-09-09T03:42:35;14.14;94.69
67275;DHT22;55463;52.324;5.122;2022-09-09T03:45:02;14.10;94.89
67275;DHT22;55463;52.324;5.122;2022-09-09T03:47:28;14.07;95.00
67275;DHT22;55463;52.324;5.122;2022-09-09T03:49:54;14.08;95.16
67275;DHT22;55463;52.324;5.122;2022-09-09T03:52:19;14.03;95.17
67275;DHT22;55463;52.324;5.122;2022-09-09T03:54:46;14.03;94.86
67275;DHT22;55463;52.324;5.122;2022-09-09T03:57:13;14.03;95.28
67275;DHT22;55463;52.324;5.122;2022-09-09T03:59:41;14.00;95.18
67275;DHT22;55463;52.324;5.122;2022-09-09T04:02:07;14.01;95.30
67275;DHT22;55463;52.324;5.122;2022-09-09T04:04:32;14.00;95.37
67275;DHT22;55463;52.324;5.122;2022-09-09T04:06:58;14.00;95.39
67275;DHT22;55463;52.324;5.122;2022-09-09T04:09:23;14.01;95.38
67275;DHT22;55463;52.324;5.122;2022-09-09T04:11:48;13.93;95.07
67275;DHT22;55463;52.324;5.122;2022-09-09T04:14:14;13.98;95.42
67275;DHT22;55463;52.324;5.122;2022-09-09T04:16:40;13.96;95.22
67275;DHT22;55463;52.324;5.122;2022-09-09T04:19:10;14.00;95.12
67275;DHT22;55463;52.324;5.122;2022-09-09T04:21:38;13.96;95.33
67275;DHT22;55463;52.324;5.122;2022-09-09T04:24:05;13.93;95.30
67275;DHT22;55463;52.324;5.122;2022-09-09T04:26:31;13.97;95.15
67275;DHT22;55463;52.324;5.122;2022-09-09T04:28:56;13.91;95.34
67275;DHT22;55463;52.324;5.122;2022-09-09T04:31:22;13.96;95.25
67275;DHT22;55463;52.324;5.122;2022-09-09T04:33:49;13.93;95.28
67275;DHT22;55463;52.324;5.122;2022-09-09T04:36:14;13.93;95.11
67275;DHT22;55463;52.324;5.122;2022-09-09T04:38:40;13.88;95.53
67275;DHT22;55463;52.324;5.122;2022-09-09T04:41:05;13.88;95.39
67275;DHT22;55463;52.324;5.122;2022-09-09T04:43:31;13.87;95.30
67275;DHT22;55463;52.324;5.122;2022-09-09T04:45:57;13.91;95.33
67275;DHT22;55463;52.324;5.122;2022-09-09T04:48:24;13.94;95.15
67275;DHT22;55463;52.324;5.122;2022-09-09T04:50:54;13.96;95.06
67275;DHT22;55463;52.324;5.122;2022-09-09T04:53:20;14.00;94.73
67275;DHT22;55463;52.324;5.122;2022-09-09T04:55:45;13.94;94.65
67275;DHT22;55463;52.324;5.122;2022-09-09T04:58:11;13.93;94.70
67275;DHT22;55463;52.324;5.122;2022-09-09T05:00:37;13.94;94.81
67275;DHT22;55463;52.324;5.122;2022-09-09T05:03:04;13.97;94.97
67275;DHT22;55463;52.324;5.122;2022-09-09T05:05:30;13.94;94.81
67275;DHT22;55463;52.324;5.122;2022-09-09T05:08:09;13.98;94.90
67275;DHT22;55463;52.324;5.122;2022-09-09T05:10:37;13.90;94.81
67275;DHT22;55463;52.324;5.122;2022-09-09T05:13:03;13.97;94.82
67275;DHT22;55463;52.324;5.122;2022-09-09T05:15:29;14.00;94.77
67275;DHT22;55463;52.324;5.122;2022-09-09T05:17:59;13.98;94.59
67275;DHT22;55463;52.324;5.122;2022-09-09T05:20:26;14.01;94.91
67275;DHT22;55463;52.324;5.122;2022-09-09T05:22:55;13.98;94.73
67275;DHT22;55463;52.324;5.122;2022-09-09T05:25:21;13.97;94.89
67275;DHT22;55463;52.324;5.122;2022-09-09T05:27:47;14.00;94.88
67275;DHT22;55463;52.324;5.122;2022-09-09T05:30:12;14.00;94.77
67275;DHT22;55463;52.324;5.122;2022-09-09T05:32:38;13.96;94.85
67275;DHT22;55463;52.324;5.122;2022-09-09T05:35:03;14.04;95.10
67275;DHT22;55463;52.324;5.122;2022-09-09T05:37:30;14.00;94.67
67275;DHT22;55463;52.324;5.122;2022-09-09T05:39:56;14.05;94.86
67275;DHT22;55463;52.324;5.122;2022-09-09T05:42:21;14.05;94.81
67275;DHT22;55463;52.324;5.122;2022-09-09T05:44:46;14.05;94.91
67275;DHT22;55463;52.324;5.122;2022-09-09T05:47:12;14.10;95.09
67275;DHT22;55463;52.324;5.122;2022-09-09T05:49:37;14.14;95.12
67275;DHT22;55463;52.324;5.122;2022-09-09T05:52:03;14.20;94.93
67275;DHT22;55463;52.324;5.122;2022-09-09T05:54:29;14.26;94.80
67275;DHT22;55463;52.324;5.122;2022-09-09T05:56:55;14.22;94.83
67275;DHT22;55463;52.324;5.122;2022-09-09T05:59:20;14.25;95.00
67275;DHT22;55463;52.324;5.122;2022-09-09T06:01:45;14.24;95.02
67275;DHT22;55463;52.324;5.122;2022-09-09T06:04:11;14.29;95.20
67275;DHT22;55463;52.324;5.122;2022-09-09T06:06:38;14.33;95.14
67275;DHT22;55463;52.324;5.122;2022-09-09T06:09:06;14.38;95.11
67275;DHT22;55463;52.324;5.122;2022-09-09T06:11:35;14.53;94.97
67275;DHT22;55463;52.324;5.122;2022-09-09T06:14:02;14.63;94.76
67275;DHT22;55463;52.324;5.122;2022-09-09T06:16:29;14.69;94.56
67275;DHT22;55463;52.324;5.122;2022-09-09T06:18:56;14.83;94.40
67275;DHT22;55463;52.324;5.122;2022-09-09T06:21:27;14.88;94.22
67275;DHT22;55463;52.324;5.122;2022-09-09T06:23:52;14.95;93.82
67275;DHT22;55463;52.324;5.122;2022-09-09T06:26:20;14.93;94.06
67275;DHT22;55463;52.324;5.122;2022-09-09T06:28:47;15.00;93.64
67275;DHT22;55463;52.324;5.122;2022-09-09T06:31:14;15.15;93.36
67275;DHT22;55463;52.324;5.122;2022-09-09T06:33:42;15.22;93.54
67275;DHT22;55463;52.324;5.122;2022-09-09T06:36:14;15.35;92.83
67275;DHT22;55463;52.324;5.122;2022-09-09T06:38:40;15.41;92.58
67275;DHT22;55463;52.324;5.122;2022-09-09T06:41:06;15.52;92.23
67275;DHT22;55463;52.324;5.122;2022-09-09T06:43:32;15.63;92.05
67275;DHT22;55463;52.324;5.122;2022-09-09T06:46:00;15.63;91.93
67275;DHT22;55463;52.324;5.122;2022-09-09T06:48:26;15.56;91.91
67275;DHT22;55463;52.324;5.122;2022-09-09T06:51:09;15.55;91.91
67275;DHT22;55463;52.324;5.122;2022-09-09T06:53:36;15.55;91.87
67275;DHT22;55463;52.324;5.122;2022-09-09T06:56:21;15.91;90.90
67275;DHT22;55463;52.324;5.122;2022-09-09T06:58:49;16.49;89.57
67275;DHT22;55463;52.324;5.122;2022-09-09T07:01:16;16.56;89.28
67275;DHT22;55463;52.324;5.122;2022-09-09T07:03:45;16.44;88.82
67275;DHT22;55463;52.324;5.122;2022-09-09T07:06:25;16.25;90.02
67275;DHT22;55463;52.324;5.122;2022-09-09T07:08:52;16.29;89.64
67275;DHT22;55463;52.324;5.122;2022-09-09T07:11:19;16.48;89.84
67275;DHT22;55463;52.324;5.122;2022-09-09T07:13:46;16.74;89.83
67275;DHT22;55463;52.324;5.122;2022-09-09T07:16:17;17.22;88.03
67275;DHT22;55463;52.324;5.122;2022-09-09T07:18:42;17.90;85.71
67275;DHT22;55463;52.324;5.122;2022-09-09T07:21:13;18.45;84.66
67275;DHT22;55463;52.324;5.122;2022-09-09T07:23:39;18.79;83.72
67275;DHT22;55463;52.324;5.122;2022-09-09T07:26:16;19.10;82.48
67275;DHT22;55463;52.324;5.122;2022-09-09T07:28:42;19.19;80.98
67275;DHT22;55463;52.324;5.122;2022-09-09T07:31:16;19.08;81.20
67275;DHT22;55463;52.324;5.122;2022-09-09T07:33:43;18.46;82.18
67275;DHT22;55463;52.324;5.122;2022-09-09T07:36:12;18.35;83.43
67275;DHT22;55463;52.324;5.122;2022-09-09T07:38:39;18.07;83.87
67275;DHT22;55463;52.324;5.122;2022-09-09T07:41:09;17.96;85.10
67275;DHT22;55463;52.324;5.122;2022-09-09T07:43:38;17.93;84.96
67275;DHT22;55463;52.324;5.122;2022-09-09T07:46:05;17.70;85.39
67275;DHT22;55463;52.324;5.122;2022-09-09T07:48:31;17.52;85.08
67275;DHT22;55463;52.324;5.122;2022-09-09T07:51:15;17.31;86.05
67275;DHT22;55463;52.324;5.122;2022-09-09T07:53:45;17.18;86.39
67275;DHT22;55463;52.324;5.122;2022-09-09T07:56:16;17.15;86.51
67275;DHT22;55463;52.324;5.122;2022-09-09T07:58:44;17.15;86.56
67275;DHT22;55463;52.324;5.122;2022-09-09T08:01:32;17.25;86.61
67275;DHT22;55463;52.324;5.122;2022-09-09T08:04:04;17.38;86.69
67275;DHT22;55463;52.324;5.122;2022-09-09T08:06:34;17.38;85.64
67275;DHT22;55463;52.324;5.122;2022-09-09T08:09:00;17.38;86.32
67275;DHT22;55463;52.324;5.122;2022-09-09T08:11:28;17.39;86.02
67275;DHT22;55463;52.324;5.122;2022-09-09T08:13:55;17.28;86.05
67275;DHT22;55463;52.324;5.122;2022-09-09T08:16:28;17.18;86.24
67275;DHT22;55463;52.324;5.122;2022-09-09T08:18:55;17.14;86.26
67275;DHT22;55463;52.324;5.122;2022-09-09T08:21:23;17.17;86.07
67275;DHT22;55463;52.324;5.122;2022-09-09T08:23:51;17.17;85.94
67275;DHT22;55463;52.324;5.122;2022-09-09T08:26:19;17.17;85.88
67275;DHT22;55463;52.324;5.122;2022-09-09T08:28:48;17.12;85.89
67275;DHT22;55463;52.324;5.122;2022-09-09T08:31:36;17.18;86.13
67275;DHT22;55463;52.324;5.122;2022-09-09T08:34:02;17.24;86.00
67275;DHT22;55463;52.324;5.122;2022-09-09T08:36:30;17.32;85.54
67275;DHT22;55463;52.324;5.122;2022-09-09T08:38:58;17.34;84.63
67275;DHT22;55463;52.324;5.122;2022-09-09T08:44:02;17.32;84.75
67275;DHT22;55463;52.324;5.122;2022-09-09T08:46:38;17.38;84.84
67275;DHT22;55463;52.324;5.122;2022-09-09T08:54:58;17.38;84.75
67275;DHT22;55463;52.324;5.122;2022-09-09T08:57:28;17.40;84.41
67275;DHT22;55463;52.324;5.122;2022-09-09T08:59:55;17.42;84.75
67275;DHT22;55463;52.324;5.122;2022-09-09T09:12:58;17.66;84.14
67275;DHT22;55463;52.324;5.122;2022-09-09T09:15:28;17.67;83.76
67275;DHT22;55463;52.324;5.122;2022-09-09T09:17:55;17.65;82.89
67275;DHT22;55463;52.324;5.122;2022-09-09T09:20:33;17.62;83.89
67275;DHT22;55463;52.324;5.122;2022-09-09T09:23:02;17.67;83.77
67275;DHT22;55463;52.324;5.122;2022-09-09T09:25:38;17.77;83.78
67275;DHT22;55463;52.324;5.122;2022-09-09T09:28:19;17.69;83.71
67275;DHT22;55463;52.324;5.122;2022-09-09T09:35:49;17.76;83.50
67275;DHT22;55463;52.324;5.122;2022-09-09T09:38:17;17.70;82.76
67275;DHT22;55463;52.324;5.122;2022-09-09T09:40:53;17.67;83.23
67275;DHT22;55463;52.324;5.122;2022-09-09T09:43:36;17.66;83.48
67275;DHT22;55463;52.324;5.122;2022-09-09T09:46:16;17.59;83.73
67275;DHT22;55463;52.324;5.122;2022-09-09T09:48:43;17.69;83.55
67275;DHT22;55463;52.324;5.122;2022-09-09T09:51:10;17.59;83.84
67275;DHT22;55463;52.324;5.122;2022-09-09T09:53:38;17.63;83.39
67275;DHT22;55463;52.324;5.122;2022-09-09T09:56:13;17.65;83.25
67275;DHT22;55463;52.324;5.122;2022-09-09T10:01:26;17.59;84.29
67275;DHT22;55463;52.324;5.122;2022-09-09T10:04:17;17.65;84.48
67275;DHT22;55463;52.324;5.122;2022-09-09T10:06:44;17.57;85.19
67275;DHT22;55463;52.324;5.122;2022-09-09T10:09:26;17.79;84.94
67275;DHT22;55463;52.324;5.122;2022-09-09T10:17:25;17.86;84.13
67275;DHT22;55463;52.324;5.122;2022-09-09T10:20:18;18.07;83.24
67275;DHT22;55463;52.324;5.122;2022-09-09T10:23:03;18.27;83.02
67275;DHT22;55463;52.324;5.122;2022-09-09T10:29:18;18.41;82.68
67275;DHT22;55463;52.324;5.122;2022-09-09T10:32:05;18.81;81.80
67275;DHT22;55463;52.324;5.122;2022-09-09T10:34:39;19.11;80.59
67275;DHT22;55463;52.324;5.122;2022-09-09T10:37:35;19.38;79.57
67275;DHT22;55463;52.324;5.122;2022-09-09T10:42:58;18.80;80.14
67275;DHT22;55463;52.324;5.122;2022-09-09T10:45:49;18.38;82.04
67275;DHT22;55463;52.324;5.122;2022-09-09T10:56:10;18.94;85.35
67275;DHT22;55463;52.324;5.122;2022-09-09T10:58:51;19.76;83.05
67275;DHT22;55463;52.324;5.122;2022-09-09T11:01:29;19.69;81.63
67275;DHT22;55463;52.324;5.122;2022-09-09T11:04:10;19.77;82.28
67275;DHT22;55463;52.324;5.122;2022-09-09T11:06:39;19.63;80.42
67275;DHT22;55463;52.324;5.122;2022-09-09T11:09:05;19.61;79.49
67275;DHT22;55463;52.324;5.122;2022-09-09T11:11:41;19.76;79.10
67275;DHT22;55463;52.324;5.122;2022-09-09T11:14:33;19.72;80.01
67275;DHT22;55463;52.324;5.122;2022-09-09T11:17:18;19.89;80.58
67275;DHT22;55463;52.324;5.122;2022-09-09T11:19:46;19.80;79.20
67275;DHT22;55463;52.324;5.122;2022-09-09T11:24:58;19.74;79.77
67275;DHT22;55463;52.324;5.122;2022-09-09T11:36:02;19.06;80.49
67275;DHT22;55463;52.324;5.122;2022-09-09T11:41:08;18.87;81.70
67275;DHT22;55463;52.324;5.122;2022-09-09T11:43:49;18.79;81.25
67275;DHT22;55463;52.324;5.122;2022-09-09T11:46:19;18.84;82.11
67275;DHT22;55463;52.324;5.122;2022-09-09T11:48:56;18.84;81.43
67275;DHT22;55463;52.324;5.122;2022-09-09T11:51:27;18.90;80.98
67275;DHT22;55463;52.324;5.122;2022-09-09T11:54:01;18.96;81.09
67275;DHT22;55463;52.324;5.122;2022-09-09T11:56:43;19.00;80.93
67275;DHT22;55463;52.324;5.122;2022-09-09T11:59:30;18.77;83.32
67275;DHT22;55463;52.324;5.122;2022-09-09T12:01:58;18.46;85.99
67275;DHT22;55463;52.324;5.122;2022-09-09T12:06:54;18.07;89.01
67275;DHT22;55463;52.324;5.122;2022-09-09T12:12:21;18.14;89.05
67275;DHT22;55463;52.324;5.122;2022-09-09T12:17:27;17.97;89.27
67275;DHT22;55463;52.324;5.122;2022-09-09T12:20:16;18.08;89.66
67275;DHT22;55463;52.324;5.122;2022-09-09T12:33:18;18.90;89.82
67275;DHT22;55463;52.324;5.122;2022-09-09T12:35:47;19.04;87.99
67275;DHT22;55463;52.324;5.122;2022-09-09T12:38:23;18.97;86.09
67275;DHT22;55463;52.324;5.122;2022-09-09T12:40:58;18.98;85.44
67275;DHT22;55463;52.324;5.122;2022-09-09T12:43:25;18.93;86.59
67275;DHT22;55463;52.324;5.122;2022-09-09T12:45:54;18.96;86.73
67275;DHT22;55463;52.324;5.122;2022-09-09T12:48:27;18.97;85.29
67275;DHT22;55463;52.324;5.122;2022-09-09T12:50:55;18.76;85.59
67275;DHT22;55463;52.324;5.122;2022-09-09T12:53:39;18.77;85.49
67275;DHT22;55463;52.324;5.122;2022-09-09T12:56:08;18.62;85.42
67275;DHT22;55463;52.324;5.122;2022-09-09T12:58:37;18.32;85.38
67275;DHT22;55463;52.324;5.122;2022-09-09T13:01:04;18.18;86.95
67275;DHT22;55463;52.324;5.122;2022-09-09T13:03:31;18.12;86.89
67275;DHT22;55463;52.324;5.122;2022-09-09T13:05:59;18.28;86.32
67275;DHT22;55463;52.324;5.122;2022-09-09T13:08:35;18.32;85.13
67275;DHT22;55463;52.324;5.122;2022-09-09T13:11:01;18.36;86.20
67275;DHT22;55463;52.324;5.122;2022-09-09T13:13:37;18.46;86.00
67275;DHT22;55463;52.324;5.122;2022-09-09T13:16:05;18.48;85.40
67275;DHT22;55463;52.324;5.122;2022-09-09T13:18:36;18.35;85.48
67275;DHT22;55463;52.324;5.122;2022-09-09T13:21:03;18.46;86.21
67275;DHT22;55463;52.324;5.122;2022-09-09T13:23:34;18.45;85.89
67275;DHT22;55463;52.324;5.122;2022-09-09T13:26:05;18.31;86.78
67275;DHT22;55463;52.324;5.122;2022-09-09T13:28:33;18.17;87.28
67275;DHT22;55463;52.324;5.122;2022-09-09T13:31:02;18.02;87.69
67275;DHT22;55463;52.324;5.122;2022-09-09T13:36:09;17.97;88.50
67275;DHT22;55463;52.324;5.122;2022-09-09T13:38:38;18.00;87.60
67275;DHT22;55463;52.324;5.122;2022-09-09T13:41:09;18.15;87.52
67275;DHT22;55463;52.324;5.122;2022-09-09T13:43:42;18.11;87.73
67275;DHT22;55463;52.324;5.122;2022-09-09T13:46:37;17.91;87.76
67275;DHT22;55463;52.324;5.122;2022-09-09T13:49:19;17.86;88.97
67275;DHT22;55463;52.324;5.122;2022-09-09T13:51:47;17.79;90.01
67275;DHT22;55463;52.324;5.122;2022-09-09T13:54:15;17.73;90.69
67275;DHT22;55463;52.324;5.122;2022-09-09T13:56:42;17.74;90.70
67275;DHT22;55463;52.324;5.122;2022-09-09T13:59:15;17.67;90.78
67275;DHT22;55463;52.324;5.122;2022-09-09T14:01:41;17.70;91.31
67275;DHT22;55463;52.324;5.122;2022-09-09T14:04:07;17.66;91.48
67275;DHT22;55463;52.324;5.122;2022-09-09T14:06:34;17.79;91.88
67275;DHT22;55463;52.324;5.122;2022-09-09T14:09:02;17.69;91.19
67275;DHT22;55463;52.324;5.122;2022-09-09T14:11:28;17.67;91.47
67275;DHT22;55463;52.324;5.122;2022-09-09T14:13:53;17.69;91.65
67275;DHT22;55463;52.324;5.122;2022-09-09T14:16:18;17.69;90.98
67275;DHT22;55463;52.324;5.122;2022-09-09T14:18:45;17.76;90.94
67275;DHT22;55463;52.324;5.122;2022-09-09T14:21:10;17.82;90.02
67275;DHT22;55463;52.324;5.122;2022-09-09T14:23:36;17.83;89.92
67275;DHT22;55463;52.324;5.122;2022-09-09T14:26:04;17.80;90.34
67275;DHT22;55463;52.324;5.122;2022-09-09T14:28:29;17.77;90.11
67275;DHT22;55463;52.324;5.122;2022-09-09T14:30:54;17.83;90.39
67275;DHT22;55463;52.324;5.122;2022-09-09T14:33:20;17.79;90.37
67275;DHT22;55463;52.324;5.122;2022-09-09T14:35:46;17.82;90.42
67275;DHT22;55463;52.324;5.122;2022-09-09T14:38:11;17.77;90.31
67275;DHT22;55463;52.324;5.122;2022-09-09T14:40:38;17.80;90.02
67275;DHT22;55463;52.324;5.122;2022-09-09T14:43:04;17.84;90.39
67275;DHT22;55463;52.324;5.122;2022-09-09T14:45:31;17.90;89.79
67275;DHT22;55463;52.324;5.122;2022-09-09T14:47:56;18.01;90.00
67275;DHT22;55463;52.324;5.122;2022-09-09T14:50:23;18.07;89.55
67275;DHT22;55463;52.324;5.122;2022-09-09T14:52:48;18.29;88.97
67275;DHT22;55463;52.324;5.122;2022-09-09T14:55:14;18.45;88.62
67275;DHT22;55463;52.324;5.122;2022-09-09T14:57:40;18.49;88.79
67275;DHT22;55463;52.324;5.122;2022-09-09T15:00:07;18.62;88.99
67275;DHT22;55463;52.324;5.122;2022-09-09T15:02:34;18.56;88.52
67275;DHT22;55463;52.324;5.122;2022-09-09T15:04:59;18.53;88.86
67275;DHT22;55463;52.324;5.122;2022-09-09T15:07:25;18.44;88.29
67275;DHT22;55463;52.324;5.122;2022-09-09T15:09:52;18.46;89.37
67275;DHT22;55463;52.324;5.122;2022-09-09T15:12:18;18.36;88.73
67275;DHT22;55463;52.324;5.122;2022-09-09T15:14:47;18.39;89.28
67275;DHT22;55463;52.324;5.122;2022-09-09T15:17:13;18.34;89.36
67275;DHT22;55463;52.324;5.122;2022-09-09T15:19:39;18.22;87.96
67275;DHT22;55463;52.324;5.122;2022-09-09T15:22:05;18.15;87.39
67275;DHT22;55463;52.324;5.122;2022-09-09T15:24:34;18.05;87.53
67275;DHT22;55463;52.324;5.122;2022-09-09T15:27:00;17.96;88.15
67275;DHT22;55463;52.324;5.122;2022-09-09T15:29:27;17.91;88.15
67275;DHT22;55463;52.324;5.122;2022-09-09T15:31:55;17.91;88.28
67275;DHT22;55463;52.324;5.122;2022-09-09T15:34:21;17.80;87.42
67275;DHT22;55463;52.324;5.122;2022-09-09T15:36:47;17.69;87.97
67275;DHT22;55463;52.324;5.122;2022-09-09T15:39:14;17.66;87.66
67275;DHT22;55463;52.324;5.122;2022-09-09T15:41:46;17.62;88.09
67275;DHT22;55463;52.324;5.122;2022-09-09T15:44:13;17.56;88.39
67275;DHT22;55463;52.324;5.122;2022-09-09T15:46:41;17.69;88.99
67275;DHT22;55463;52.324;5.122;2022-09-09T15:49:41;17.65;89.03
67275;DHT22;55463;52.324;5.122;2022-09-09T15:52:00;17.62;89.23
67275;DHT22;55463;52.324;5.122;2022-09-09T15:54:32;17.61;89.43
67275;DHT22;55463;52.324;5.122;2022-09-09T15:57:00;17.63;89.53
67275;DHT22;55463;52.324;5.122;2022-09-09T15:59:28;17.61;89.88
67275;DHT22;55463;52.324;5.122;2022-09-09T16:04:36;17.70;89.77
67275;DHT22;55463;52.324;5.122;2022-09-09T16:07:04;17.76;89.99
67275;DHT22;55463;52.324;5.122;2022-09-09T16:09:30;17.83;89.77
67275;DHT22;55463;52.324;5.122;2022-09-09T16:12:01;17.87;90.00
67275;DHT22;55463;52.324;5.122;2022-09-09T16:17:00;17.87;90.14
67275;DHT22;55463;52.324;5.122;2022-09-09T16:19:26;17.91;89.94
67275;DHT22;55463;52.324;5.122;2022-09-09T16:21:51;17.94;89.58
67275;DHT22;55463;52.324;5.122;2022-09-09T16:24:18;17.90;89.57
67275;DHT22;55463;52.324;5.122;2022-09-09T16:26:56;17.84;89.80
67275;DHT22;55463;52.324;5.122;2022-09-09T16:29:22;17.84;91.08
67275;DHT22;55463;52.324;5.122;2022-09-09T16:31:49;17.77;91.42
67275;DHT22;55463;52.324;5.122;2022-09-09T16:34:16;17.76;91.78
67275;DHT22;55463;52.324;5.122;2022-09-09T16:36:43;17.69;91.88
67275;DHT22;55463;52.324;5.122;2022-09-09T16:39:11;17.63;92.88
67275;DHT22;55463;52.324;5.122;2022-09-09T16:41:38;17.62;93.66
67275;DHT22;55463;52.324;5.122;2022-09-09T16:44:06;17.57;94.15
67275;DHT22;55463;52.324;5.122;2022-09-09T16:46:35;17.50;94.43
67275;DHT22;55463;52.324;5.122;2022-09-09T16:49:02;17.43;94.79
67275;DHT22;55463;52.324;5.122;2022-09-09T16:51:30;17.28;94.99
67275;DHT22;55463;52.324;5.122;2022-09-09T16:53:58;17.21;95.29
67275;DHT22;55463;52.324;5.122;2022-09-09T16:56:26;17.11;95.39
67275;DHT22;55463;52.324;5.122;2022-09-09T16:58:59;17.07;96.06
67275;DHT22;55463;52.324;5.122;2022-09-09T17:01:30;17.01;96.17
67275;DHT22;55463;52.324;5.122;2022-09-09T17:03:58;16.85;95.35
67275;DHT22;55463;52.324;5.122;2022-09-09T17:06:24;16.69;95.13
67275;DHT22;55463;52.324;5.122;2022-09-09T17:08:54;16.59;95.25
67275;DHT22;55463;52.324;5.122;2022-09-09T17:11:20;16.53;95.46
67275;DHT22;55463;52.324;5.122;2022-09-09T17:13:47;16.53;96.03
67275;DHT22;55463;52.324;5.122;2022-09-09T17:16:15;16.53;96.13
67275;DHT22;55463;52.324;5.122;2022-09-09T17:18:41;16.53;96.13
67275;DHT22;55463;52.324;5.122;2022-09-09T17:21:08;16.51;95.90
67275;DHT22;55463;52.324;5.122;2022-09-09T17:23:36;16.53;96.37
67275;DHT22;55463;52.324;5.122;2022-09-09T17:26:04;16.53;96.53
67275;DHT22;55463;52.324;5.122;2022-09-09T17:28:30;16.55;96.81
67275;DHT22;55463;52.324;5.122;2022-09-09T17:31:00;16.60;96.91
67275;DHT22;55463;52.324;5.122;2022-09-09T17:33:30;16.60;97.14
67275;DHT22;55463;52.324;5.122;2022-09-09T17:36:02;16.69;97.23
67275;DHT22;55463;52.324;5.122;2022-09-09T17:38:28;16.70;97.36
67275;DHT22;55463;52.324;5.122;2022-09-09T17:41:05;16.70;97.28
67275;DHT22;55463;52.324;5.122;2022-09-09T17:43:31;16.72;97.32
67275;DHT22;55463;52.324;5.122;2022-09-09T17:46:05;16.70;97.35